GS63A ESSB-EFMA
Flight info
| Callsign | GS63A |
|---|---|
| Flight time | 0h 49m |
| Altitude | 9000 |
| Route | TEB RUNGA |
| Aircraft | DHC6/L-SDFGR/C |
Departure
| Time | 2026-04-27 16:33 |
|---|---|
| Airport | Stockholm-Bromma Airport (ESSB) |
Arrival
| Time | 2026-04-27 17:23 |
|---|---|
| Airport | Mariehamn Airport (EFMA) |
| Time | Latitude | Longitude | Altitude | Speed | Heading |
|---|---|---|---|---|---|
| 2026-04-27 15:59 | 59.35682 | 17.94385 | 29 ft | 0 kts | 82° |
| 2026-04-27 16:22 | 59.35672 | 17.94360 | 29 ft | 7 kts | 272° |
| 2026-04-27 16:22 | 59.35673 | 17.94297 | 29 ft | 0 kts | 268° |
| 2026-04-27 16:23 | 59.35676 | 17.94279 | 29 ft | 5 kts | 292° |
| 2026-04-27 16:23 | 59.35618 | 17.94134 | 30 ft | 17 kts | 167° |
| 2026-04-27 16:23 | 59.35522 | 17.94271 | 30 ft | 17 kts | 124° |
| 2026-04-27 16:24 | 59.35452 | 17.94471 | 31 ft | 17 kts | 126° |
| 2026-04-27 16:24 | 59.35319 | 17.94845 | 36 ft | 16 kts | 123° |
| 2026-04-27 16:25 | 59.35251 | 17.95201 | 42 ft | 14 kts | 124° |
| 2026-04-27 16:25 | 59.35120 | 17.95514 | 45 ft | 15 kts | 163° |
| 2026-04-27 16:26 | 59.35084 | 17.95521 | 45 ft | 0 kts | 173° |
| 2026-04-27 16:31 | 59.35078 | 17.95522 | 45 ft | 3 kts | 172° |
| 2026-04-27 16:32 | 59.34975 | 17.95429 | 45 ft | 13 kts | 309° |
| 2026-04-27 16:32 | 59.34979 | 17.95418 | 45 ft | 0 kts | 307° |
| 2026-04-27 16:33 | 59.35066 | 17.95204 | 43 ft | 71 kts | 301° |
| 2026-04-27 16:33 | 59.35385 | 17.94469 | 799 ft | 67 kts | 323° |
| 2026-04-27 16:33 | 59.35771 | 17.93812 | 1288 ft | 96 kts | 324° |
| 2026-04-27 16:33 | 59.36554 | 17.93464 | 1412 ft | 135 kts | 7° |
| 2026-04-27 16:34 | 59.37442 | 17.94593 | 1464 ft | 171 kts | 50° |
| 2026-04-27 16:34 | 59.38035 | 17.96714 | 1608 ft | 182 kts | 55° |
| 2026-04-27 16:34 | 59.38816 | 17.98701 | 1767 ft | 185 kts | 47° |
| 2026-04-27 16:34 | 59.39648 | 18.00649 | 1934 ft | 187 kts | 46° |
| 2026-04-27 16:35 | 59.40525 | 18.02467 | 2087 ft | 185 kts | 33° |
| 2026-04-27 16:35 | 59.41720 | 18.03318 | 2246 ft | 183 kts | 13° |
| 2026-04-27 16:35 | 59.44176 | 18.04520 | 2593 ft | 181 kts | 12° |
| 2026-04-27 16:36 | 59.45359 | 18.05314 | 2753 ft | 183 kts | 25° |
| 2026-04-27 16:36 | 59.46407 | 18.06746 | 2913 ft | 185 kts | 36° |
| 2026-04-27 16:36 | 59.47385 | 18.08409 | 2975 ft | 189 kts | 37° |
| 2026-04-27 16:36 | 59.48306 | 18.10015 | 2980 ft | 156 kts | 37° |
| 2026-04-27 16:37 | 59.49024 | 18.11313 | 2958 ft | 131 kts | 37° |
| 2026-04-27 16:37 | 59.49720 | 18.12574 | 2931 ft | 135 kts | 37° |
| 2026-04-27 16:37 | 59.50411 | 18.13829 | 3077 ft | 134 kts | 37° |
| 2026-04-27 16:37 | 59.51087 | 18.15076 | 3344 ft | 134 kts | 37° |
| 2026-04-27 16:38 | 59.51760 | 18.16340 | 3631 ft | 134 kts | 37° |
| 2026-04-27 16:38 | 59.52432 | 18.17615 | 3883 ft | 135 kts | 37° |
| 2026-04-27 16:38 | 59.53108 | 18.18902 | 4147 ft | 135 kts | 37° |
| 2026-04-27 16:38 | 59.53780 | 18.20190 | 4405 ft | 135 kts | 37° |
| 2026-04-27 16:39 | 59.54433 | 18.21534 | 4646 ft | 140 kts | 49° |
| 2026-04-27 16:39 | 59.54714 | 18.23458 | 4752 ft | 157 kts | 71° |
| 2026-04-27 16:39 | 59.54875 | 18.25541 | 4659 ft | 156 kts | 72° |
| 2026-04-27 16:39 | 59.55029 | 18.27581 | 4486 ft | 155 kts | 72° |
| 2026-04-27 16:40 | 59.55178 | 18.29643 | 4462 ft | 148 kts | 72° |
| 2026-04-27 16:40 | 59.55325 | 18.31631 | 4476 ft | 143 kts | 71° |
| 2026-04-27 16:40 | 59.55475 | 18.33539 | 4469 ft | 141 kts | 71° |
| 2026-04-27 16:40 | 59.55636 | 18.35443 | 4478 ft | 139 kts | 70° |
| 2026-04-27 16:41 | 59.55824 | 18.37293 | 4469 ft | 136 kts | 63° |
| 2026-04-27 16:41 | 59.56102 | 18.39059 | 4457 ft | 134 kts | 60° |
| 2026-04-27 16:41 | 59.56384 | 18.40811 | 4469 ft | 134 kts | 62° |
| 2026-04-27 16:41 | 59.56667 | 18.42574 | 4476 ft | 134 kts | 62° |
| 2026-04-27 16:42 | 59.56950 | 18.44320 | 4477 ft | 135 kts | 62° |
| 2026-04-27 16:42 | 59.57231 | 18.46102 | 4474 ft | 135 kts | 62° |
| 2026-04-27 16:42 | 59.57508 | 18.47859 | 4472 ft | 135 kts | 62° |
| 2026-04-27 16:42 | 59.57783 | 18.49614 | 4465 ft | 135 kts | 62° |
| 2026-04-27 16:43 | 59.58061 | 18.51391 | 4466 ft | 135 kts | 62° |
| 2026-04-27 16:43 | 59.58334 | 18.53138 | 4464 ft | 134 kts | 62° |
| 2026-04-27 16:43 | 59.58606 | 18.54890 | 4470 ft | 134 kts | 61° |
| 2026-04-27 16:43 | 59.58879 | 18.56652 | 4467 ft | 134 kts | 62° |
| 2026-04-27 16:44 | 59.59153 | 18.58413 | 4465 ft | 134 kts | 61° |
| 2026-04-27 16:44 | 59.59426 | 18.60173 | 4467 ft | 134 kts | 62° |
| 2026-04-27 16:44 | 59.59698 | 18.61932 | 4468 ft | 134 kts | 61° |
| 2026-04-27 16:44 | 59.59969 | 18.63687 | 4466 ft | 134 kts | 61° |
| 2026-04-27 16:45 | 59.60239 | 18.65433 | 4466 ft | 133 kts | 62° |
| 2026-04-27 16:45 | 59.60496 | 18.67181 | 4470 ft | 134 kts | 63° |
| 2026-04-27 16:45 | 59.60758 | 18.68956 | 4471 ft | 134 kts | 63° |
| 2026-04-27 16:45 | 59.61018 | 18.70714 | 4468 ft | 134 kts | 62° |
| 2026-04-27 16:46 | 59.61283 | 18.72486 | 4465 ft | 134 kts | 62° |
| 2026-04-27 16:46 | 59.61546 | 18.74249 | 4463 ft | 134 kts | 62° |
| 2026-04-27 16:46 | 59.61809 | 18.75993 | 4462 ft | 134 kts | 62° |
| 2026-04-27 16:46 | 59.62074 | 18.77756 | 4464 ft | 133 kts | 62° |
| 2026-04-27 16:47 | 59.62336 | 18.79493 | 4464 ft | 133 kts | 61° |
| 2026-04-27 16:47 | 59.62601 | 18.81247 | 4464 ft | 133 kts | 61° |
| 2026-04-27 16:47 | 59.62865 | 18.82990 | 4464 ft | 132 kts | 62° |
| 2026-04-27 16:47 | 59.63125 | 18.84712 | 4463 ft | 133 kts | 61° |
| 2026-04-27 16:48 | 59.63390 | 18.86460 | 4462 ft | 133 kts | 61° |
| 2026-04-27 16:48 | 59.63657 | 18.88220 | 4461 ft | 133 kts | 62° |
| 2026-04-27 16:48 | 59.63921 | 18.89969 | 4462 ft | 133 kts | 61° |
| 2026-04-27 16:49 | 59.64447 | 18.93450 | 4467 ft | 132 kts | 61° |
| 2026-04-27 16:49 | 59.64711 | 18.95192 | 4466 ft | 132 kts | 60° |
| 2026-04-27 16:49 | 59.64975 | 18.96937 | 4467 ft | 132 kts | 61° |
| 2026-04-27 16:49 | 59.65236 | 18.98663 | 4470 ft | 132 kts | 60° |
| 2026-04-27 16:50 | 59.65499 | 19.00406 | 4464 ft | 132 kts | 60° |
| 2026-04-27 16:50 | 59.65761 | 19.02137 | 4462 ft | 132 kts | 61° |
| 2026-04-27 16:50 | 59.66023 | 19.03873 | 4462 ft | 132 kts | 61° |
| 2026-04-27 16:50 | 59.66288 | 19.05637 | 4462 ft | 132 kts | 61° |
| 2026-04-27 16:51 | 59.66550 | 19.07371 | 4457 ft | 132 kts | 61° |
| 2026-04-27 16:51 | 59.66811 | 19.09113 | 4453 ft | 132 kts | 61° |
| 2026-04-27 16:51 | 59.67073 | 19.10858 | 4451 ft | 132 kts | 60° |
| 2026-04-27 16:51 | 59.67332 | 19.12585 | 4452 ft | 132 kts | 60° |
| 2026-04-27 16:52 | 59.67593 | 19.14325 | 4452 ft | 132 kts | 61° |
| 2026-04-27 16:52 | 59.67856 | 19.16081 | 4451 ft | 132 kts | 60° |
| 2026-04-27 16:52 | 59.68112 | 19.17798 | 4450 ft | 132 kts | 60° |
| 2026-04-27 16:52 | 59.68374 | 19.19553 | 4450 ft | 132 kts | 60° |
| 2026-04-27 16:53 | 59.68633 | 19.21291 | 4449 ft | 131 kts | 60° |
| 2026-04-27 16:53 | 59.68891 | 19.23022 | 4449 ft | 131 kts | 60° |
| 2026-04-27 16:53 | 59.69147 | 19.24739 | 4450 ft | 131 kts | 60° |
| 2026-04-27 16:53 | 59.69404 | 19.26470 | 4448 ft | 131 kts | 60° |
| 2026-04-27 16:54 | 59.69658 | 19.28180 | 4448 ft | 131 kts | 61° |
| 2026-04-27 16:54 | 59.69916 | 19.29913 | 4448 ft | 131 kts | 61° |
| 2026-04-27 16:54 | 59.70169 | 19.31626 | 4448 ft | 130 kts | 60° |
| 2026-04-27 16:54 | 59.70427 | 19.33360 | 4448 ft | 131 kts | 60° |
| 2026-04-27 16:55 | 59.70682 | 19.35084 | 4447 ft | 130 kts | 60° |
| 2026-04-27 16:55 | 59.70935 | 19.36800 | 4445 ft | 130 kts | 60° |
| 2026-04-27 16:55 | 59.71192 | 19.38538 | 4444 ft | 130 kts | 60° |
| 2026-04-27 16:55 | 59.71443 | 19.40243 | 4444 ft | 130 kts | 60° |
| 2026-04-27 16:56 | 59.71696 | 19.41957 | 4444 ft | 130 kts | 60° |
| 2026-04-27 16:56 | 59.71952 | 19.43698 | 4444 ft | 130 kts | 61° |
| 2026-04-27 16:56 | 59.72202 | 19.45398 | 4443 ft | 130 kts | 60° |
| 2026-04-27 16:56 | 59.72456 | 19.47127 | 4444 ft | 130 kts | 60° |
| 2026-04-27 16:57 | 59.72704 | 19.48821 | 4442 ft | 130 kts | 60° |
| 2026-04-27 16:57 | 59.72958 | 19.50550 | 4441 ft | 130 kts | 60° |
| 2026-04-27 16:57 | 59.73207 | 19.52252 | 4440 ft | 130 kts | 60° |
| 2026-04-27 16:57 | 59.73460 | 19.53979 | 4440 ft | 130 kts | 60° |
| 2026-04-27 16:58 | 59.73711 | 19.55698 | 4441 ft | 130 kts | 60° |
| 2026-04-27 16:58 | 59.73960 | 19.57404 | 4441 ft | 129 kts | 61° |
| 2026-04-27 16:58 | 59.74210 | 19.59118 | 4440 ft | 129 kts | 60° |
| 2026-04-27 16:58 | 59.74459 | 19.60829 | 4440 ft | 130 kts | 60° |
| 2026-04-27 16:59 | 59.74710 | 19.62557 | 4443 ft | 130 kts | 60° |
| 2026-04-27 16:59 | 59.74961 | 19.64275 | 4442 ft | 130 kts | 60° |
| 2026-04-27 16:59 | 59.75205 | 19.65987 | 4440 ft | 130 kts | 62° |
| 2026-04-27 16:59 | 59.75443 | 19.67717 | 4438 ft | 130 kts | 62° |
| 2026-04-27 17:00 | 59.75760 | 19.70001 | 4439 ft | 130 kts | 61° |
| 2026-04-27 17:00 | 59.76162 | 19.72874 | 4440 ft | 130 kts | 62° |
| 2026-04-27 17:00 | 59.76405 | 19.74593 | 4440 ft | 129 kts | 62° |
| 2026-04-27 17:01 | 59.76651 | 19.76335 | 4438 ft | 129 kts | 61° |
| 2026-04-27 17:01 | 59.76891 | 19.78031 | 4436 ft | 129 kts | 61° |
| 2026-04-27 17:01 | 59.77134 | 19.79743 | 4435 ft | 129 kts | 60° |
| 2026-04-27 17:01 | 59.77379 | 19.81463 | 4434 ft | 129 kts | 60° |
| 2026-04-27 17:02 | 59.77619 | 19.83152 | 4435 ft | 129 kts | 60° |
| 2026-04-27 17:02 | 59.77867 | 19.84884 | 4435 ft | 129 kts | 61° |
| 2026-04-27 17:02 | 59.78112 | 19.86600 | 4437 ft | 129 kts | 61° |
| 2026-04-27 17:02 | 59.78355 | 19.88311 | 4436 ft | 129 kts | 61° |
| 2026-04-27 17:03 | 59.78719 | 19.89819 | 4432 ft | 115 kts | 32° |
| 2026-04-27 17:03 | 59.79433 | 19.90293 | 4437 ft | 108 kts | 3° |
| 2026-04-27 17:03 | 59.80183 | 19.90213 | 4436 ft | 108 kts | 354° |
| 2026-04-27 17:03 | 59.80925 | 19.89926 | 4436 ft | 109 kts | 349° |
| 2026-04-27 17:04 | 59.81655 | 19.89525 | 4436 ft | 109 kts | 347° |
| 2026-04-27 17:04 | 59.82370 | 19.89063 | 4436 ft | 109 kts | 345° |
| 2026-04-27 17:04 | 59.83092 | 19.88557 | 4436 ft | 109 kts | 344° |
| 2026-04-27 17:04 | 59.83805 | 19.88033 | 4436 ft | 109 kts | 344° |
| 2026-04-27 17:05 | 59.84511 | 19.87503 | 4435 ft | 109 kts | 343° |
| 2026-04-27 17:05 | 59.85219 | 19.86963 | 4436 ft | 109 kts | 343° |
| 2026-04-27 17:05 | 59.85948 | 19.86406 | 4439 ft | 117 kts | 343° |
| 2026-04-27 17:05 | 59.86452 | 19.86018 | 4462 ft | 116 kts | 343° |
| 2026-04-27 17:06 | 59.87480 | 19.85223 | 4344 ft | 119 kts | 343° |
| 2026-04-27 17:06 | 59.88248 | 19.84628 | 4285 ft | 118 kts | 343° |
| 2026-04-27 17:06 | 59.89001 | 19.84043 | 4176 ft | 118 kts | 343° |
| 2026-04-27 17:06 | 59.89774 | 19.83444 | 4035 ft | 118 kts | 343° |
| 2026-04-27 17:07 | 59.90530 | 19.82859 | 3884 ft | 119 kts | 343° |
| 2026-04-27 17:07 | 59.91298 | 19.82262 | 3760 ft | 118 kts | 344° |
| 2026-04-27 17:07 | 59.92058 | 19.81671 | 3637 ft | 117 kts | 343° |
| 2026-04-27 17:07 | 59.92816 | 19.81083 | 3503 ft | 117 kts | 344° |
| 2026-04-27 17:08 | 59.93571 | 19.80497 | 3360 ft | 118 kts | 343° |
| 2026-04-27 17:08 | 59.94338 | 19.79900 | 3217 ft | 118 kts | 343° |
| 2026-04-27 17:08 | 59.95100 | 19.79307 | 3088 ft | 118 kts | 343° |
| 2026-04-27 17:08 | 59.95869 | 19.78708 | 2949 ft | 119 kts | 343° |
| 2026-04-27 17:09 | 59.96634 | 19.78112 | 2835 ft | 118 kts | 343° |
| 2026-04-27 17:09 | 59.97400 | 19.77515 | 2710 ft | 118 kts | 343° |
| 2026-04-27 17:09 | 59.98034 | 19.76499 | 2577 ft | 130 kts | 307° |
| 2026-04-27 17:09 | 59.98080 | 19.74564 | 2452 ft | 153 kts | 262° |
| 2026-04-27 17:10 | 59.97391 | 19.72915 | 2424 ft | 166 kts | 217° |
| 2026-04-27 17:10 | 59.96260 | 19.72435 | 2426 ft | 168 kts | 171° |
| 2026-04-27 17:10 | 59.95256 | 19.73374 | 2429 ft | 156 kts | 127° |
| 2026-04-27 17:10 | 59.94820 | 19.75164 | 2428 ft | 136 kts | 82° |
| 2026-04-27 17:11 | 59.95076 | 19.76740 | 2433 ft | 114 kts | 38° |
| 2026-04-27 17:11 | 59.96513 | 19.77256 | 2439 ft | 107 kts | 0° |
| 2026-04-27 17:11 | 59.97253 | 19.77336 | 2439 ft | 107 kts | 3° |
| 2026-04-27 17:12 | 59.98289 | 19.79269 | 2434 ft | 132 kts | 76° |
| 2026-04-27 17:12 | 59.97972 | 19.81113 | 2441 ft | 150 kts | 111° |
| 2026-04-27 17:12 | 59.97382 | 19.82845 | 2441 ft | 151 kts | 115° |
| 2026-04-27 17:13 | 59.96787 | 19.84558 | 2444 ft | 152 kts | 114° |
| 2026-04-27 17:13 | 59.96184 | 19.86287 | 2440 ft | 152 kts | 114° |
| 2026-04-27 17:13 | 59.95585 | 19.88022 | 2441 ft | 152 kts | 114° |
| 2026-04-27 17:13 | 59.94979 | 19.89764 | 2437 ft | 151 kts | 114° |
| 2026-04-27 17:14 | 59.94332 | 19.91397 | 2429 ft | 158 kts | 132° |
| 2026-04-27 17:14 | 59.93277 | 19.92168 | 2437 ft | 166 kts | 177° |
| 2026-04-27 17:14 | 59.92197 | 19.91569 | 2438 ft | 161 kts | 220° |
| 2026-04-27 17:14 | 59.91557 | 19.89936 | 2431 ft | 142 kts | 264° |
| 2026-04-27 17:15 | 59.91599 | 19.88175 | 2435 ft | 119 kts | 307° |
| 2026-04-27 17:15 | 59.92178 | 19.87223 | 2438 ft | 106 kts | 345° |
| 2026-04-27 17:15 | 59.92848 | 19.86598 | 2442 ft | 108 kts | 338° |
| 2026-04-27 17:15 | 59.93483 | 19.85799 | 2439 ft | 111 kts | 327° |
| 2026-04-27 17:16 | 59.94066 | 19.84753 | 2440 ft | 112 kts | 325° |
| 2026-04-27 17:16 | 59.94638 | 19.83690 | 2441 ft | 112 kts | 325° |
| 2026-04-27 17:16 | 59.95213 | 19.82627 | 2440 ft | 113 kts | 325° |
| 2026-04-27 17:16 | 59.95779 | 19.81564 | 2444 ft | 113 kts | 326° |
| 2026-04-27 17:17 | 59.96357 | 19.80472 | 2443 ft | 113 kts | 326° |
| 2026-04-27 17:17 | 59.96924 | 19.79404 | 2445 ft | 113 kts | 326° |
| 2026-04-27 17:17 | 59.97491 | 19.78327 | 2445 ft | 112 kts | 326° |
| 2026-04-27 17:18 | 59.98898 | 19.78395 | 2440 ft | 108 kts | 16° |
| 2026-04-27 17:18 | 59.99591 | 19.78950 | 2441 ft | 108 kts | 18° |
| 2026-04-27 17:18 | 60.00286 | 19.79526 | 2372 ft | 109 kts | 18° |
| 2026-04-27 17:18 | 60.00972 | 19.80105 | 2266 ft | 108 kts | 17° |
| 2026-04-27 17:19 | 60.01655 | 19.80685 | 2130 ft | 107 kts | 17° |
| 2026-04-27 17:19 | 60.02343 | 19.81272 | 1979 ft | 107 kts | 18° |
| 2026-04-27 17:19 | 60.03034 | 19.81865 | 1826 ft | 109 kts | 18° |
| 2026-04-27 17:19 | 60.03726 | 19.82462 | 1732 ft | 110 kts | 18° |
| 2026-04-27 17:20 | 60.04436 | 19.83075 | 1734 ft | 110 kts | 18° |
| 2026-04-27 17:20 | 60.05116 | 19.83663 | 1659 ft | 107 kts | 19° |
| 2026-04-27 17:20 | 60.05821 | 19.84270 | 1449 ft | 111 kts | 18° |
| 2026-04-27 17:20 | 60.06538 | 19.84890 | 1219 ft | 116 kts | 16° |
| 2026-04-27 17:21 | 60.07250 | 19.85504 | 1020 ft | 115 kts | 19° |
| 2026-04-27 17:21 | 60.08000 | 19.86148 | 885 ft | 111 kts | 18° |
| 2026-04-27 17:21 | 60.08754 | 19.86799 | 757 ft | 116 kts | 20° |
| 2026-04-27 17:21 | 60.09464 | 19.87458 | 604 ft | 107 kts | 17° |
| 2026-04-27 17:22 | 60.10095 | 19.87981 | 373 ft | 87 kts | 19° |
| 2026-04-27 17:22 | 60.10610 | 19.88436 | 243 ft | 78 kts | 26° |
| 2026-04-27 17:22 | 60.11108 | 19.88862 | 113 ft | 80 kts | 15° |
| 2026-04-27 17:22 | 60.11594 | 19.89278 | 12 ft | 58 kts | 15° |
| 2026-04-27 17:23 | 60.11847 | 19.89472 | 12 ft | 25 kts | 17° |
| 2026-04-27 17:23 | 60.11942 | 19.89540 | 12 ft | 5 kts | 22° |
| 2026-04-27 17:23 | 60.11985 | 19.89583 | 12 ft | 15 kts | 26° |
| 2026-04-27 17:23 | 60.12120 | 19.89707 | 12 ft | 18 kts | 17° |
| 2026-04-27 17:24 | 60.12202 | 19.89790 | 12 ft | 17 kts | 26° |
| 2026-04-27 17:24 | 60.12328 | 19.89904 | 12 ft | 22 kts | 21° |
| 2026-04-27 17:24 | 60.12461 | 19.90018 | 13 ft | 15 kts | 24° |
| 2026-04-27 17:24 | 60.12511 | 19.90074 | 13 ft | 4 kts | 37° |
| 2026-04-27 17:25 | 60.12551 | 19.90214 | 13 ft | 17 kts | 99° |
| 2026-04-27 17:25 | 60.12511 | 19.90411 | 13 ft | 10 kts | 113° |
| 2026-04-27 17:25 | 60.12500 | 19.90466 | 13 ft | 0 kts | 114° |
| 2026-04-27 17:25 | 60.12474 | 19.90520 | 13 ft | 0 kts | 165° |
| 2026-04-27 17:26 | 60.12430 | 19.90628 | 13 ft | 5 kts | 110° |
| 2026-04-27 17:26 | 60.12429 | 19.90631 | 13 ft | 0 kts | 112° |
| 2026-04-27 17:26 | 60.12430 | 19.90624 | 13 ft | 2 kts | 123° |
| 2026-04-27 17:26 | 60.12430 | 19.90626 | 13 ft | 0 kts | 122° |